Time;durP1;ratioP1;P1;durP2;ratioP2;P2;SDS_P1;SDS_P2;PMS_P1;PMS_P2;Temp;Humidity;BMP_temperature;BMP_pressure;BME280_temperature;BME280_humidity;BME280_pressure;Samples;Min_cycle;Max_cycle;Signal;HPM_P1;HPM_P2
2022/06/01 00:01:50;;;;;;;0.20;0.20;;;;;;;;;;5120302;27;20121;-88
2022/06/01 00:04:17;;;;;;;0.10;0.10;;;;;;;;;;5110006;27;20073;-88
2022/06/01 00:06:43;;;;;;;0.10;0.10;;;;;;;;;;5122562;27;20046;-88
2022/06/01 00:09:09;;;;;;;0.10;0.10;;;;;;;;;;5116228;27;20070;-89
2022/06/01 00:11:35;;;;;;;0.10;0.10;;;;;;;;;;5106508;27;20043;-88
2022/06/01 00:14:01;;;;;;;0.10;0.10;;;;;;;;;;5116466;27;20031;-88
2022/06/01 00:16:28;;;;;;;0.00;0.00;;;;;;;;;;5133341;27;20041;-88
2022/06/01 00:18:54;;;;;;;0.20;0.20;;;;;;;;;;5116623;27;20090;-88
2022/06/01 00:21:23;;;;;;;0.20;0.20;;;;;;;;;;5103141;27;20058;-88
2022/06/01 00:23:49;;;;;;;0.20;0.20;;;;;;;;;;5110194;27;20134;-89
2022/06/01 00:26:15;;;;;;;0.10;0.10;;;;;;;;;;5111883;27;20534;-87
2022/06/01 00:28:41;;;;;;;0.10;0.10;;;;;;;;;;5116560;27;20034;-88
2022/06/01 00:31:10;;;;;;;0.00;0.00;;;;;;;;;;5114697;27;20049;-88
2022/06/01 00:33:37;;;;;;;0.17;0.17;;;;;;;;;;5107774;27;20036;-88
2022/06/01 00:36:05;;;;;;;0.20;0.20;;;;;;;;;;5102304;27;20384;-88
2022/06/01 00:38:31;;;;;;;0.10;0.10;;;;;;;;;;5109117;27;20114;-87
2022/06/01 00:40:57;;;;;;;0.10;0.10;;;;;;;;;;5117343;27;20444;-87
2022/06/01 00:43:25;;;;;;;0.10;0.10;;;;;;;;;;5108857;27;20047;-88
2022/06/01 00:45:51;;;;;;;0.10;0.10;;;;;;;;;;5121943;27;20741;-87
2022/06/01 00:48:18;;;;;;;0.10;0.10;;;;;;;;;;5115631;27;20043;-88
2022/06/01 00:50:45;;;;;;;0.15;0.15;;;;;;;;;;5114839;27;20098;-87
2022/06/01 00:53:14;;;;;;;0.10;0.10;;;;;;;;;;5118445;27;20035;-88
2022/06/01 00:55:44;;;;;;;0.10;0.10;;;;;;;;;;5099335;28;20040;-88
2022/06/01 00:58:22;;;;;;;0.10;0.10;;;;;;;;;;5097609;27;20525;-88
2022/06/01 01:00:49;;;;;;;0.10;0.10;;;;;;;;;;5105810;27;20042;-87
2022/06/01 01:03:16;;;;;;;0.10;0.10;;;;;;;;;;5092244;28;20042;-88
2022/06/01 01:05:46;;;;;;;0.05;0.05;;;;;;;;;;5097280;27;20042;-87
2022/06/01 01:08:12;;;;;;;0.10;0.10;;;;;;;;;;5108328;27;20042;-87
2022/06/01 01:10:39;;;;;;;0.10;0.10;;;;;;;;;;5108556;27;20116;-88
2022/06/01 01:13:08;;;;;;;0.10;0.10;;;;;;;;;;5108306;27;20062;-87
2022/06/01 01:15:38;;;;;;;0.10;0.10;;;;;;;;;;5101534;27;20082;-86
2022/06/01 01:18:10;;;;;;;0.10;0.10;;;;;;;;;;5118279;27;20510;-87
2022/06/01 01:20:41;;;;;;;0.10;0.10;;;;;;;;;;5112083;27;20039;-88
2022/06/01 01:23:12;;;;;;;0.20;0.20;;;;;;;;;;5096660;27;20479;-88
2022/06/01 01:25:39;;;;;;;0.10;0.10;;;;;;;;;;5111038;27;20062;-88
2022/06/01 01:28:06;;;;;;;0.20;0.20;;;;;;;;;;5120235;27;20034;-88
2022/06/01 01:30:32;;;;;;;0.10;0.10;;;;;;;;;;5104748;27;20070;-88
2022/06/01 01:33:01;;;;;;;0.10;0.10;;;;;;;;;;5113263;27;20030;-88
2022/06/01 01:35:27;;;;;;;0.10;0.10;;;;;;;;;;5121738;27;20042;-88
2022/06/01 01:38:06;;;;;;;0.22;0.22;;;;;;;;;;5105234;27;20432;-88
2022/06/01 01:40:32;;;;;;;0.30;0.30;;;;;;;;;;5109315;27;20075;-88
2022/06/01 01:42:59;;;;;;;0.10;0.10;;;;;;;;;;5101971;27;20073;-88
2022/06/01 01:45:26;;;;;;;0.13;0.13;;;;;;;;;;5132433;27;20491;-88
2022/06/01 01:47:53;;;;;;;0.10;0.10;;;;;;;;;;5108810;28;20039;-87
2022/06/01 01:50:20;;;;;;;0.10;0.10;;;;;;;;;;5102120;28;20042;-88
2022/06/01 01:52:47;;;;;;;0.20;0.20;;;;;;;;;;5102235;28;20039;-88
2022/06/01 01:55:20;;;;;;;0.10;0.10;;;;;;;;;;5118230;28;20047;-88
2022/06/01 01:58:05;;;;;;;0.10;0.10;;;;;;;;;;5119063;28;20039;-87
2022/06/01 02:00:34;;;;;;;0.10;0.10;;;;;;;;;;5102556;27;20121;-87
2022/06/01 02:03:22;;;;;;;0.10;0.10;;;;;;;;;;5113285;27;20039;-88
2022/06/01 02:06:04;;;;;;;0.20;0.20;;;;;;;;;;5105890;27;20078;-88
2022/06/01 02:08:41;;;;;;;0.10;0.10;;;;;;;;;;5113609;27;20042;-87
2022/06/01 02:14:08;;;;;;;0.10;0.10;;;;;;;;;;5128855;27;20035;-88
2022/06/01 02:16:36;;;;;;;0.10;0.10;;;;;;;;;;5109272;28;20129;-87
2022/06/01 02:19:04;;;;;;;0.10;0.10;;;;;;;;;;5114502;28;20038;-88
2022/06/01 02:21:30;;;;;;;0.20;0.20;;;;;;;;;;5112768;27;20041;-87
2022/06/01 02:23:59;;;;;;;0.00;0.00;;;;;;;;;;5127448;28;20035;-88
2022/06/01 02:26:26;;;;;;;0.00;0.00;;;;;;;;;;5129398;27;20046;-87
2022/06/01 02:28:54;;;;;;;0.10;0.10;;;;;;;;;;5109986;28;20483;-87
2022/06/01 02:31:20;;;;;;;0.10;0.10;;;;;;;;;;5108379;28;20510;-87
2022/06/01 02:33:47;;;;;;;0.10;0.10;;;;;;;;;;5107012;28;20042;-88
2022/06/01 02:36:15;;;;;;;0.15;0.15;;;;;;;;;;5092468;27;20165;-87
2022/06/01 02:38:45;;;;;;;0.13;0.13;;;;;;;;;;5127863;27;20039;-88
2022/06/01 02:44:04;;;;;;;0.22;0.22;;;;;;;;;;5104698;27;20052;-87
2022/06/01 02:46:31;;;;;;;0.10;0.10;;;;;;;;;;5110434;27;20043;-88
2022/06/01 02:49:01;;;;;;;0.10;0.10;;;;;;;;;;5111414;27;20039;-87
2022/06/01 02:51:30;;;;;;;0.10;0.10;;;;;;;;;;5141960;27;20040;-88
2022/06/01 02:53:56;;;;;;;0.10;0.10;;;;;;;;;;5117306;27;20034;-88
2022/06/01 02:56:24;;;;;;;0.15;0.15;;;;;;;;;;5109890;27;20039;-87
2022/06/01 02:58:50;;;;;;;0.10;0.10;;;;;;;;;;5097858;27;20404;-88
2022/06/01 03:01:17;;;;;;;0.03;0.03;;;;;;;;;;5118073;27;20414;-88
2022/06/01 03:03:43;;;;;;;0.10;0.10;;;;;;;;;;5111561;27;20064;-87
2022/06/01 03:06:12;;;;;;;0.00;0.00;;;;;;;;;;5110969;27;20083;-88
2022/06/01 03:08:38;;;;;;;0.20;0.20;;;;;;;;;;5117026;27;20039;-87
2022/06/01 03:11:04;;;;;;;0.20;0.20;;;;;;;;;;5128371;27;20043;-87
2022/06/01 03:13:30;;;;;;;0.10;0.10;;;;;;;;;;5104666;27;20407;-87
2022/06/01 03:15:56;;;;;;;0.08;0.08;;;;;;;;;;5110676;27;20034;-87
2022/06/01 03:18:22;;;;;;;0.13;0.13;;;;;;;;;;5097561;27;20035;-87
2022/06/01 03:20:52;;;;;;;0.17;0.17;;;;;;;;;;5111405;27;20631;-87
2022/06/01 03:23:19;;;;;;;0.20;0.20;;;;;;;;;;5117780;27;20396;-86
2022/06/01 03:25:45;;;;;;;0.10;0.10;;;;;;;;;;5123748;27;20047;-88
2022/06/01 03:28:13;;;;;;;0.10;0.10;;;;;;;;;;5111380;27;20408;-87
2022/06/01 03:30:39;;;;;;;0.10;0.10;;;;;;;;;;5124131;27;20050;-87
2022/06/01 03:33:05;;;;;;;0.10;0.10;;;;;;;;;;5110550;27;20487;-87
2022/06/01 03:35:33;;;;;;;0.10;0.10;;;;;;;;;;5123488;27;20126;-87
2022/06/01 03:37:59;;;;;;;0.08;0.08;;;;;;;;;;5128846;27;20042;-87
2022/06/01 03:40:26;;;;;;;0.15;0.15;;;;;;;;;;5108539;27;20031;-87
2022/06/01 03:42:52;;;;;;;0.20;0.20;;;;;;;;;;5111409;27;20032;-87
2022/06/01 03:48:04;;;;;;;0.10;0.10;;;;;;;;;;5128602;27;20062;-88
2022/06/01 03:50:30;;;;;;;0.10;0.10;;;;;;;;;;5116999;27;20031;-87
2022/06/01 03:52:56;;;;;;;0.10;0.10;;;;;;;;;;5116077;27;20063;-88
2022/06/01 03:55:23;;;;;;;0.05;0.05;;;;;;;;;;5109255;27;20049;-88
2022/06/01 03:57:49;;;;;;;0.13;0.13;;;;;;;;;;5127227;27;20087;-88
2022/06/01 04:00:17;;;;;;;0.08;0.08;;;;;;;;;;5103190;27;20099;-88
2022/06/01 04:02:46;;;;;;;0.17;0.17;;;;;;;;;;5103592;28;20051;-88
2022/06/01 04:05:12;;;;;;;0.10;0.10;;;;;;;;;;5109387;27;20404;-88
2022/06/01 04:07:38;;;;;;;0.10;0.10;;;;;;;;;;5116052;27;20039;-87
2022/06/01 04:10:04;;;;;;;0.25;0.25;;;;;;;;;;5132861;27;20062;-89
2022/06/01 04:12:30;;;;;;;0.10;0.10;;;;;;;;;;5103091;27;20046;-88
2022/06/01 04:14:57;;;;;;;0.00;0.00;;;;;;;;;;5097908;27;20141;-89
2022/06/01 04:17:23;;;;;;;0.10;0.10;;;;;;;;;;5103763;27;20073;-88
2022/06/01 04:19:49;;;;;;;0.10;0.10;;;;;;;;;;5114862;27;20046;-88
2022/06/01 04:22:15;;;;;;;0.10;0.10;;;;;;;;;;5110964;27;20399;-88
2022/06/01 04:24:41;;;;;;;0.20;0.20;;;;;;;;;;5112448;27;20039;-88
2022/06/01 04:27:08;;;;;;;0.10;0.10;;;;;;;;;;5115930;27;20046;-88
2022/06/01 04:29:34;;;;;;;0.10;0.10;;;;;;;;;;5113879;27;20740;-89
2022/06/01 04:32:05;;;;;;;0.05;0.05;;;;;;;;;;5105181;27;20452;-88
2022/06/01 04:34:31;;;;;;;0.10;0.10;;;;;;;;;;5114064;27;20030;-88
2022/06/01 04:36:57;;;;;;;0.10;0.10;;;;;;;;;;5118273;27;20513;-89
2022/06/01 04:39:25;;;;;;;0.10;0.10;;;;;;;;;;5082623;28;20443;-88
2022/06/01 04:41:51;;;;;;;0.00;0.00;;;;;;;;;;5113244;27;20504;-88
2022/06/01 04:44:17;;;;;;;0.20;0.20;;;;;;;;;;5106438;27;20525;-88
2022/06/01 04:46:43;;;;;;;0.10;0.10;;;;;;;;;;5116032;27;20045;-88
2022/06/01 04:49:09;;;;;;;0.10;0.10;;;;;;;;;;5108927;27;20035;-88
2022/06/01 04:51:35;;;;;;;0.10;0.10;;;;;;;;;;5119201;27;20050;-88
2022/06/01 04:54:02;;;;;;;0.20;0.20;;;;;;;;;;5124295;27;20039;-88
2022/06/01 04:56:28;;;;;;;0.15;0.15;;;;;;;;;;5098477;27;20876;-87
2022/06/01 04:58:57;;;;;;;0.20;0.20;;;;;;;;;;5118108;27;20475;-88
2022/06/01 05:01:23;;;;;;;0.10;0.10;;;;;;;;;;5107372;27;20083;-89
2022/06/01 05:04:00;;;;;;;0.10;0.10;;;;;;;;;;5111838;27;20540;-88
2022/06/01 05:06:26;;;;;;;0.20;0.20;;;;;;;;;;5101732;27;20039;-87
2022/06/01 05:08:52;;;;;;;0.10;0.10;;;;;;;;;;5105731;27;20044;-87
2022/06/01 05:11:19;;;;;;;0.20;0.20;;;;;;;;;;5116966;27;20501;-88
2022/06/01 05:14:04;;;;;;;0.10;0.10;;;;;;;;;;5133969;27;20555;-88
2022/06/01 05:16:31;;;;;;;0.03;0.03;;;;;;;;;;5120222;27;20043;-88
2022/06/01 05:18:57;;;;;;;0.30;0.30;;;;;;;;;;5120266;27;20051;-87
2022/06/01 05:21:23;;;;;;;0.10;0.10;;;;;;;;;;5095838;27;20034;-88
2022/06/01 05:23:49;;;;;;;0.10;0.10;;;;;;;;;;5116771;27;20377;-88
2022/06/01 05:26:15;;;;;;;0.17;0.17;;;;;;;;;;5118609;27;20042;-88
2022/06/01 05:28:41;;;;;;;0.20;0.20;;;;;;;;;;5119928;27;20057;-88
2022/06/01 05:31:09;;;;;;;0.10;0.10;;;;;;;;;;5115934;27;20042;-88
2022/06/01 05:33:35;;;;;;;0.10;0.10;;;;;;;;;;5104280;27;20113;-89
2022/06/01 05:36:02;;;;;;;0.20;0.20;;;;;;;;;;5106485;27;20135;-88
2022/06/01 05:38:28;;;;;;;0.10;0.10;;;;;;;;;;5110657;27;20047;-89
2022/06/01 05:40:54;;;;;;;0.10;0.10;;;;;;;;;;5119822;27;20049;-88
2022/06/01 05:43:21;;;;;;;0.13;0.13;;;;;;;;;;5120334;27;20074;-88
2022/06/01 05:45:47;;;;;;;0.10;0.10;;;;;;;;;;5107471;27;20078;-87
2022/06/01 05:48:14;;;;;;;0.20;0.20;;;;;;;;;;5086157;27;20043;-89
2022/06/01 05:50:40;;;;;;;0.10;0.10;;;;;;;;;;5113425;27;20082;-88
2022/06/01 05:53:07;;;;;;;0.10;0.10;;;;;;;;;;5100170;28;20377;-88
2022/06/01 05:55:35;;;;;;;0.10;0.10;;;;;;;;;;5121269;27;20089;-88
2022/06/01 05:58:01;;;;;;;0.10;0.10;;;;;;;;;;5100909;28;20031;-90
2022/06/01 06:00:27;;;;;;;0.10;0.10;;;;;;;;;;5114174;27;20035;-89
2022/06/01 06:02:53;;;;;;;0.10;0.10;;;;;;;;;;5109300;27;20510;-89
2022/06/01 06:08:05;;;;;;;0.17;0.17;;;;;;;;;;5117604;28;20411;-89
2022/06/01 06:10:31;;;;;;;0.20;0.20;;;;;;;;;;5106817;27;20035;-86
2022/06/01 06:12:57;;;;;;;0.10;0.10;;;;;;;;;;5110567;27;20035;-86
2022/06/01 06:15:23;;;;;;;0.10;0.10;;;;;;;;;;5119647;27;20465;-85
2022/06/01 06:17:50;;;;;;;0.10;0.10;;;;;;;;;;5140083;27;20038;-86
2022/06/01 06:20:16;;;;;;;0.10;0.10;;;;;;;;;;5126250;27;20031;-86
2022/06/01 06:22:42;;;;;;;0.20;0.20;;;;;;;;;;5114708;27;20100;-87
2022/06/01 06:25:09;;;;;;;7.95;1.70;;;;;;;;;;5131078;27;20035;-88
2022/06/01 06:27:35;;;;;;;0.10;0.10;;;;;;;;;;5118815;27;20062;-86
2022/06/01 06:30:01;;;;;;;0.00;0.00;;;;;;;;;;5122780;27;20038;-86
2022/06/01 06:32:28;;;;;;;0.20;0.20;;;;;;;;;;5107862;27;20051;-88
2022/06/01 06:34:54;;;;;;;0.10;0.10;;;;;;;;;;5129000;27;20050;-86
2022/06/01 06:37:20;;;;;;;0.08;0.08;;;;;;;;;;5107110;27;20043;-88
2022/06/01 06:39:46;;;;;;;0.10;0.10;;;;;;;;;;5111365;27;20041;-86
2022/06/01 06:42:13;;;;;;;0.10;0.10;;;;;;;;;;5108171;27;20087;-87
2022/06/01 06:44:39;;;;;;;0.10;0.10;;;;;;;;;;5102934;27;20100;-88
2022/06/01 06:47:05;;;;;;;0.00;0.00;;;;;;;;;;5114614;27;20042;-87
2022/06/01 06:49:31;;;;;;;0.00;0.00;;;;;;;;;;5118452;27;20407;-87
2022/06/01 06:52:01;;;;;;;0.15;0.15;;;;;;;;;;5107909;27;20047;-91
2022/06/01 06:54:27;;;;;;;0.10;0.10;;;;;;;;;;5122907;27;20445;-93
2022/06/01 06:56:53;;;;;;;0.13;0.13;;;;;;;;;;5109279;27;20118;-91
2022/06/01 06:59:19;;;;;;;0.20;0.20;;;;;;;;;;5115010;27;20040;-91
2022/06/01 07:01:45;;;;;;;0.10;0.10;;;;;;;;;;5130568;27;20039;-94
2022/06/01 07:04:11;;;;;;;0.00;0.00;;;;;;;;;;5116909;27;20039;-92
2022/06/01 07:06:37;;;;;;;0.10;0.10;;;;;;;;;;5110168;27;20115;-93
2022/06/01 07:09:04;;;;;;;0.15;0.15;;;;;;;;;;5109078;27;20039;-91
2022/06/01 07:11:31;;;;;;;0.00;0.00;;;;;;;;;;5110004;27;20586;-90
2022/06/01 07:13:57;;;;;;;0.10;0.10;;;;;;;;;;5121494;27;20061;-89
2022/06/01 07:16:25;;;;;;;0.10;0.10;;;;;;;;;;5112252;27;20047;-92
2022/06/01 07:18:52;;;;;;;0.10;0.10;;;;;;;;;;5104567;27;20097;-88
2022/06/01 07:21:18;;;;;;;0.10;0.10;;;;;;;;;;5127825;27;20557;-91
2022/06/01 07:23:46;;;;;;;0.20;0.20;;;;;;;;;;5123077;27;20526;-89
2022/06/01 07:26:13;;;;;;;0.10;0.10;;;;;;;;;;5120343;27;20050;-89
2022/06/01 07:28:39;;;;;;;0.08;0.08;;;;;;;;;;5110472;27;20039;-86
2022/06/01 07:31:11;;;;;;;0.40;0.40;;;;;;;;;;5113138;27;20043;-85
2022/06/01 07:33:37;;;;;;;0.00;0.00;;;;;;;;;;5103532;27;20062;-86
2022/06/01 07:36:06;;;;;;;0.10;0.10;;;;;;;;;;5112601;27;20507;-84
2022/06/01 07:44:07;;;;;;;0.10;0.10;;;;;;;;;;5134732;27;20908;-85
2022/06/01 07:46:37;;;;;;;0.10;0.10;;;;;;;;;;5080597;28;20096;-86
2022/06/01 07:49:07;;;;;;;0.10;0.10;;;;;;;;;;5116632;27;20043;-85
2022/06/01 07:51:33;;;;;;;0.10;0.10;;;;;;;;;;5112307;27;20035;-84
2022/06/01 07:53:59;;;;;;;0.00;0.00;;;;;;;;;;5103336;27;20130;-84
2022/06/01 07:56:25;;;;;;;0.10;0.10;;;;;;;;;;5112508;27;20071;-85
2022/06/01 07:58:52;;;;;;;0.10;0.10;;;;;;;;;;5120982;27;20038;-86
2022/06/01 08:01:21;;;;;;;0.10;0.10;;;;;;;;;;5114177;27;20066;-87
2022/06/01 08:03:47;;;;;;;0.20;0.20;;;;;;;;;;5125887;27;20112;-90
2022/06/01 08:06:14;;;;;;;0.20;0.20;;;;;;;;;;5122373;27;20098;-87
2022/06/01 08:08:40;;;;;;;0.10;0.10;;;;;;;;;;5120066;27;20043;-88
2022/06/01 08:11:06;;;;;;;0.10;0.10;;;;;;;;;;5103522;27;20813;-88
2022/06/01 08:13:32;;;;;;;0.10;0.10;;;;;;;;;;5118891;27;20069;-90
2022/06/01 08:15:58;;;;;;;0.10;0.10;;;;;;;;;;5119326;27;20042;-88
2022/06/01 08:18:26;;;;;;;0.10;0.10;;;;;;;;;;5115710;27;20042;-88
2022/06/01 08:20:52;;;;;;;0.10;0.10;;;;;;;;;;5112786;27;20035;-88
2022/06/01 08:23:18;;;;;;;0.10;0.10;;;;;;;;;;5112703;27;20483;-86
2022/06/01 08:25:45;;;;;;;0.10;0.10;;;;;;;;;;5104183;27;20095;-86
2022/06/01 08:28:12;;;;;;;0.20;0.20;;;;;;;;;;5109979;27;20393;-84
2022/06/01 08:30:38;;;;;;;0.10;0.10;;;;;;;;;;5100239;27;20035;-83
2022/06/01 08:33:05;;;;;;;0.10;0.10;;;;;;;;;;5104308;27;20122;-84
2022/06/01 08:35:33;;;;;;;0.08;0.08;;;;;;;;;;5102615;27;20393;-85
2022/06/01 08:38:00;;;;;;;0.00;0.00;;;;;;;;;;5105267;27;20035;-84
2022/06/01 08:40:28;;;;;;;0.08;0.08;;;;;;;;;;5101253;27;20038;-84
2022/06/01 08:42:57;;;;;;;0.00;0.00;;;;;;;;;;5119766;27;20039;-82
2022/06/01 08:45:24;;;;;;;0.10;0.10;;;;;;;;;;5104747;27;20035;-85
2022/06/01 08:47:50;;;;;;;0.10;0.10;;;;;;;;;;5103906;27;20035;-83
2022/06/01 08:50:19;;;;;;;0.03;0.03;;;;;;;;;;5108084;27;20027;-83
2022/06/01 08:52:46;;;;;;;0.08;0.08;;;;;;;;;;5112471;27;20045;-85
2022/06/01 08:55:13;;;;;;;0.00;0.00;;;;;;;;;;5136183;27;20038;-84
2022/06/01 08:57:44;;;;;;;0.10;0.10;;;;;;;;;;5119797;27;20046;-84
2022/06/01 09:00:12;;;;;;;0.10;0.10;;;;;;;;;;5113060;27;20181;-85
2022/06/01 09:02:50;;;;;;;0.15;0.15;;;;;;;;;;5119331;27;20039;-82
2022/06/01 09:05:19;;;;;;;0.10;0.10;;;;;;;;;;5102878;27;20060;-83
2022/06/01 09:07:53;;;;;;;0.10;0.10;;;;;;;;;;5132948;27;20118;-82
2022/06/01 09:10:22;;;;;;;0.10;0.10;;;;;;;;;;5115248;27;20043;-81
2022/06/01 09:12:48;;;;;;;0.00;0.00;;;;;;;;;;5110550;27;20043;-82
2022/06/01 09:15:14;;;;;;;0.20;0.20;;;;;;;;;;5114035;27;20043;-83
2022/06/01 09:17:43;;;;;;;0.10;0.10;;;;;;;;;;5108819;27;20035;-84
2022/06/01 09:23:09;;;;;;;0.10;0.10;;;;;;;;;;5116749;27;20053;-84
2022/06/01 09:25:35;;;;;;;0.10;0.10;;;;;;;;;;5093767;27;20070;-85
2022/06/01 09:28:25;;;;;;;0.10;0.10;;;;;;;;;;5107163;27;20035;-84
2022/06/01 09:30:59;;;;;;;0.00;0.00;;;;;;;;;;5125855;27;20058;-83
2022/06/01 09:33:30;;;;;;;0.00;0.00;;;;;;;;;;5118289;27;20101;-84
2022/06/01 09:36:15;;;;;;;0.10;0.10;;;;;;;;;;5105894;27;20050;-84
2022/06/01 09:38:47;;;;;;;0.10;0.10;;;;;;;;;;5106475;27;20043;-82
2022/06/01 09:41:25;;;;;;;0.10;0.10;;;;;;;;;;5099084;27;20036;-85
2022/06/01 09:43:59;;;;;;;0.10;0.10;;;;;;;;;;5099330;27;20498;-85
2022/06/01 09:46:34;;;;;;;0.00;0.00;;;;;;;;;;5105223;27;20035;-85
2022/06/01 09:49:03;;;;;;;0.00;0.00;;;;;;;;;;5100367;28;20039;-89
2022/06/01 09:51:29;;;;;;;0.20;0.20;;;;;;;;;;5100945;27;20445;-88
2022/06/01 09:54:24;;;;;;;0.03;0.03;;;;;;;;;;5109428;27;20088;-88
2022/06/01 09:56:52;;;;;;;0.10;0.10;;;;;;;;;;5108512;27;20046;-88
2022/06/01 10:07:48;;;;;;;0.00;0.00;;;;;;;;;;5099445;27;20047;-85
2022/06/01 10:10:26;;;;;;;0.10;0.10;;;;;;;;;;5119463;27;20041;-84
2022/06/01 10:12:56;;;;;;;0.10;0.10;;;;;;;;;;5137232;27;20038;-88
2022/06/01 10:15:40;;;;;;;0.10;0.10;;;;;;;;;;5119382;27;20089;-88
2022/06/01 10:18:14;;;;;;;0.20;0.20;;;;;;;;;;5115327;27;20045;-87
2022/06/01 10:20:46;;;;;;;0.00;0.00;;;;;;;;;;5107335;27;20488;-89
2022/06/01 10:23:30;;;;;;;0.10;0.10;;;;;;;;;;5113967;27;20038;-87
2022/06/01 10:25:59;;;;;;;0.10;0.10;;;;;;;;;;5109634;28;20047;-87
2022/06/01 10:28:36;;;;;;;0.15;0.15;;;;;;;;;;5103765;28;20039;-88
2022/06/01 10:31:04;;;;;;;0.10;0.10;;;;;;;;;;5115216;28;20131;-87
2022/06/01 10:33:46;;;;;;;0.15;0.15;;;;;;;;;;5103176;28;20047;-87
2022/06/01 10:36:17;;;;;;;0.00;0.00;;;;;;;;;;5143858;27;20039;-87
2022/06/01 10:38:47;;;;;;;0.00;0.00;;;;;;;;;;5108631;27;20114;-87
2022/06/01 10:41:31;;;;;;;0.00;0.00;;;;;;;;;;5102875;27;20035;-87
2022/06/01 10:44:02;;;;;;;0.13;0.13;;;;;;;;;;5109966;28;20039;-88
2022/06/01 10:46:35;;;;;;;0.03;0.03;;;;;;;;;;5102918;27;20388;-88
2022/06/01 10:49:10;;;;;;;0.13;0.13;;;;;;;;;;5108164;27;20043;-88
2022/06/01 10:51:38;;;;;;;0.10;0.10;;;;;;;;;;5121130;28;20043;-87
2022/06/01 10:54:14;;;;;;;0.20;0.20;;;;;;;;;;5104518;28;20396;-91
2022/06/01 10:56:41;;;;;;;0.10;0.10;;;;;;;;;;5109291;27;20408;-88
2022/06/01 10:59:10;;;;;;;0.10;0.10;;;;;;;;;;5115968;27;20039;-88
2022/06/01 11:01:54;;;;;;;0.20;0.20;;;;;;;;;;5133323;27;20039;-89
2022/06/01 11:04:39;;;;;;;0.00;0.00;;;;;;;;;;5104854;28;20039;-88
2022/06/01 11:07:12;;;;;;;0.03;0.03;;;;;;;;;;5117284;27;20042;-89
2022/06/01 11:09:47;;;;;;;0.00;0.00;;;;;;;;;;5118496;27;20086;-88
2022/06/01 11:12:32;;;;;;;0.10;0.10;;;;;;;;;;5099959;27;20095;-88
2022/06/01 11:15:08;;;;;;;0.00;0.00;;;;;;;;;;5101400;27;20038;-88
2022/06/01 11:17:39;;;;;;;0.17;0.17;;;;;;;;;;5107225;27;20098;-89
2022/06/01 11:20:08;;;;;;;0.10;0.10;;;;;;;;;;5116076;27;20035;-89
2022/06/01 11:22:37;;;;;;;0.05;0.05;;;;;;;;;;5114079;27;20162;-90
2022/06/01 11:25:07;;;;;;;0.03;0.03;;;;;;;;;;5107252;27;20074;-90
2022/06/01 11:27:52;;;;;;;0.00;0.00;;;;;;;;;;5124233;27;20042;-91
2022/06/01 11:30:24;;;;;;;0.10;0.10;;;;;;;;;;5108679;27;20049;-89
2022/06/01 11:32:53;;;;;;;0.00;0.00;;;;;;;;;;5114052;27;20075;-88
2022/06/01 11:35:30;;;;;;;0.10;0.10;;;;;;;;;;5106655;27;20050;-89
2022/06/01 11:38:09;;;;;;;0.00;0.00;;;;;;;;;;5107258;27;20039;-89
2022/06/01 11:40:35;;;;;;;0.00;0.00;;;;;;;;;;5109596;27;20385;-88
2022/06/01 11:43:05;;;;;;;0.20;0.20;;;;;;;;;;5121129;27;20045;-89
2022/06/01 11:45:43;;;;;;;0.10;0.10;;;;;;;;;;5123018;27;20039;-91
2022/06/01 11:48:10;;;;;;;0.00;0.00;;;;;;;;;;5111597;27;20050;-91
2022/06/01 11:50:48;;;;;;;0.00;0.00;;;;;;;;;;5128185;27;20032;-95
2022/06/01 11:53:21;;;;;;;0.10;0.10;;;;;;;;;;5095493;28;20040;-92
2022/06/01 11:55:49;;;;;;;0.10;0.10;;;;;;;;;;5100847;27;20495;-92
2022/06/01 11:58:18;;;;;;;0.10;0.10;;;;;;;;;;5120483;27;20047;-88
2022/06/01 12:00:48;;;;;;;0.10;0.10;;;;;;;;;;5104755;27;20047;-88
2022/06/01 12:03:40;;;;;;;0.00;0.00;;;;;;;;;;5101076;28;20078;-87
2022/06/01 12:06:26;;;;;;;0.10;0.10;;;;;;;;;;5118324;27;20612;-85
2022/06/01 12:09:35;;;;;;;0.10;0.10;;;;;;;;;;5094279;27;20048;-86
2022/06/01 12:12:01;;;;;;;0.10;0.10;;;;;;;;;;5107940;27;20043;-85
2022/06/01 12:14:39;;;;;;;0.08;0.08;;;;;;;;;;5102016;27;20082;-89
2022/06/01 12:17:17;;;;;;;0.00;0.00;;;;;;;;;;5125731;27;20049;-87
2022/06/01 12:19:48;;;;;;;0.00;0.00;;;;;;;;;;5107090;27;20035;-86
2022/06/01 12:30:55;;;;;;;0.10;0.10;;;;;;;;;;5124431;27;20176;-93
2022/06/01 12:33:21;;;;;;;0.00;0.00;;;;;;;;;;5100308;27;20043;-89
2022/06/01 12:35:56;;;;;;;0.08;0.08;;;;;;;;;;5100127;27;20031;-90
2022/06/01 12:38:40;;;;;;;0.10;0.10;;;;;;;;;;5099931;27;20046;-85
2022/06/01 12:41:11;;;;;;;0.10;0.10;;;;;;;;;;5100430;27;20113;-88
2022/06/01 12:43:39;;;;;;;0.00;0.00;;;;;;;;;;5102949;27;20610;-87
2022/06/01 12:46:21;;;;;;;0.00;0.00;;;;;;;;;;5087910;27;20063;-86
2022/06/01 12:48:48;;;;;;;0.00;0.00;;;;;;;;;;5107790;27;20039;-89
2022/06/01 12:51:15;;;;;;;0.10;0.10;;;;;;;;;;5130727;27;20043;-88
2022/06/01 12:53:43;;;;;;;0.00;0.00;;;;;;;;;;5111826;27;20043;-88
2022/06/01 12:56:14;;;;;;;0.05;0.05;;;;;;;;;;5122151;27;20043;-87
2022/06/01 12:58:40;;;;;;;0.00;0.00;;;;;;;;;;5127642;27;20104;-87
2022/06/01 13:01:08;;;;;;;0.00;0.00;;;;;;;;;;5112132;27;20073;-87
2022/06/01 13:03:34;;;;;;;0.10;0.10;;;;;;;;;;5126111;27;20050;-88
2022/06/01 13:06:02;;;;;;;0.00;0.00;;;;;;;;;;5114487;27;20099;-87
2022/06/01 13:08:37;;;;;;;0.10;0.10;;;;;;;;;;5125364;27;20430;-87
2022/06/01 13:11:14;;;;;;;0.00;0.00;;;;;;;;;;5112090;27;20066;-89
2022/06/01 13:13:42;;;;;;;0.17;0.17;;;;;;;;;;5088754;28;20043;-83
2022/06/01 13:16:08;;;;;;;0.03;0.03;;;;;;;;;;5097737;27;20114;-86
2022/06/01 13:18:40;;;;;;;0.00;0.00;;;;;;;;;;5101261;27;20039;-86
2022/06/01 13:21:26;;;;;;;0.00;0.00;;;;;;;;;;5095621;27;20088;-87
2022/06/01 13:23:57;;;;;;;0.00;0.00;;;;;;;;;;5121096;27;21114;-88
2022/06/01 13:26:33;;;;;;;0.10;0.10;;;;;;;;;;5139038;27;20078;-91
2022/06/01 13:29:09;;;;;;;0.00;0.00;;;;;;;;;;5115377;27;20083;-92
2022/06/01 13:31:39;;;;;;;0.10;0.10;;;;;;;;;;5130019;27;20043;-89
2022/06/01 13:34:06;;;;;;;0.00;0.00;;;;;;;;;;5104859;27;20049;-89
2022/06/01 13:36:38;;;;;;;0.10;0.10;;;;;;;;;;5111844;27;20069;-86
2022/06/01 13:39:11;;;;;;;0.10;0.10;;;;;;;;;;5108121;27;20034;-85
2022/06/01 13:41:43;;;;;;;0.05;0.05;;;;;;;;;;5118022;27;20031;-85
2022/06/01 13:44:45;;;;;;;0.00;0.00;;;;;;;;;;5121829;27;20403;-83
2022/06/01 13:47:12;;;;;;;0.00;0.00;;;;;;;;;;5122687;27;20043;-84
2022/06/01 13:49:42;;;;;;;0.10;0.10;;;;;;;;;;5111263;27;20076;-85
2022/06/01 13:52:09;;;;;;;0.10;0.10;;;;;;;;;;5106277;27;20074;-83
2022/06/01 13:54:36;;;;;;;0.03;0.03;;;;;;;;;;5093286;28;20100;-85
2022/06/01 13:57:11;;;;;;;0.00;0.00;;;;;;;;;;5105767;28;20070;-86
2022/06/01 13:59:39;;;;;;;0.10;0.10;;;;;;;;;;5099469;28;20534;-86
2022/06/01 14:02:13;;;;;;;0.10;0.10;;;;;;;;;;5079855;28;20043;-87
2022/06/01 14:04:45;;;;;;;0.10;0.10;;;;;;;;;;5106606;27;20042;-89
2022/06/01 14:07:13;;;;;;;0.10;0.10;;;;;;;;;;5098561;28;20039;-92
2022/06/01 14:10:03;;;;;;;0.00;0.00;;;;;;;;;;5092271;27;20039;-88
2022/06/01 14:12:29;;;;;;;0.20;0.20;;;;;;;;;;5124244;27;20130;-88
2022/06/01 14:14:57;;;;;;;0.00;0.00;;;;;;;;;;5110600;27;20294;-89
2022/06/01 14:17:31;;;;;;;0.10;0.10;;;;;;;;;;5106493;28;20380;-88
2022/06/01 14:19:57;;;;;;;0.10;0.10;;;;;;;;;;5092901;28;20088;-88
2022/06/01 14:22:23;;;;;;;0.17;0.17;;;;;;;;;;5097756;28;20036;-89
2022/06/01 14:30:19;;;;;;;0.00;0.00;;;;;;;;;;5119372;27;20049;-86
2022/06/01 14:32:45;;;;;;;0.00;0.00;;;;;;;;;;5115550;27;20468;-85
2022/06/01 14:35:13;;;;;;;0.10;0.10;;;;;;;;;;5114918;27;20035;-87
2022/06/01 14:37:40;;;;;;;0.00;0.00;;;;;;;;;;5116097;27;20072;-89
2022/06/01 14:40:07;;;;;;;0.03;0.03;;;;;;;;;;5121878;27;20039;-86
2022/06/01 14:42:33;;;;;;;0.00;0.00;;;;;;;;;;5103175;27;20039;-89
2022/06/01 14:44:59;;;;;;;0.03;0.03;;;;;;;;;;5111257;27;20038;-92
2022/06/01 14:47:26;;;;;;;0.10;0.10;;;;;;;;;;5122795;27;20049;-88
2022/06/01 14:49:52;;;;;;;0.10;0.10;;;;;;;;;;5103613;27;20488;-86
2022/06/01 14:52:20;;;;;;;0.10;0.10;;;;;;;;;;5111430;27;20043;-87
2022/06/01 14:54:47;;;;;;;0.00;0.00;;;;;;;;;;5115508;27;20039;-87
2022/06/01 14:57:15;;;;;;;0.05;0.05;;;;;;;;;;5135657;27;20031;-86
2022/06/01 14:59:45;;;;;;;0.00;0.00;;;;;;;;;;5117683;27;20087;-86
2022/06/01 15:02:16;;;;;;;0.10;0.10;;;;;;;;;;5112710;27;20061;-86
2022/06/01 15:04:46;;;;;;;0.00;0.00;;;;;;;;;;5105337;27;20095;-87
2022/06/01 15:07:12;;;;;;;0.10;0.10;;;;;;;;;;5133814;27;20538;-88
2022/06/01 15:09:39;;;;;;;0.00;0.00;;;;;;;;;;5134918;27;20143;-86
2022/06/01 15:12:05;;;;;;;0.10;0.10;;;;;;;;;;5119141;27;20106;-86
2022/06/01 15:14:32;;;;;;;0.10;0.10;;;;;;;;;;5122440;27;20045;-88
2022/06/01 15:16:59;;;;;;;0.10;0.10;;;;;;;;;;5108156;27;20038;-85
2022/06/01 15:19:28;;;;;;;0.10;0.10;;;;;;;;;;5107072;27;20076;-87
2022/06/01 15:21:58;;;;;;;0.00;0.00;;;;;;;;;;5125746;27;20034;-87
2022/06/01 15:24:27;;;;;;;0.10;0.10;;;;;;;;;;5118404;27;20372;-88
2022/06/01 15:26:53;;;;;;;0.10;0.10;;;;;;;;;;5117547;27;20509;-87
2022/06/01 15:40:22;;;;;;;0.00;0.00;;;;;;;;;;5122786;27;20130;-86
2022/06/01 15:42:48;;;;;;;0.05;0.05;;;;;;;;;;5135901;27;20500;-87
2022/06/01 15:45:15;;;;;;;0.10;0.10;;;;;;;;;;5135745;27;20046;-87
2022/06/01 15:47:41;;;;;;;0.08;0.08;;;;;;;;;;5110482;27;20038;-88
2022/06/01 15:50:08;;;;;;;0.10;0.10;;;;;;;;;;5134106;27;20043;-86